createdAt,value
2022-11-24T00:02:46.552Z,38.89
2022-11-24T00:07:52.479Z,34.99
2022-11-24T00:12:55.926Z,35.32
2022-11-24T00:18:00.645Z,36.65
2022-11-24T00:23:06.125Z,36.44
2022-11-24T00:28:09.546Z,37.91
2022-11-24T00:33:16.517Z,37.99
2022-11-24T00:38:21.958Z,39.30
2022-11-24T00:43:25.350Z,37.24
2022-11-24T00:48:30.075Z,39.59
2022-11-24T00:53:34.194Z,39.49
2022-11-24T00:58:40.674Z,38.33
2022-11-24T01:03:46.896Z,39.60
2022-11-24T01:08:50.372Z,41.25
2022-11-24T01:13:55.479Z,40.41
2022-11-24T01:19:00.371Z,40.42
2022-11-24T01:24:03.871Z,41.24
2022-11-24T01:29:07.528Z,40.34
2022-11-24T01:34:13.190Z,37.60
2022-11-24T01:39:18.793Z,37.73
2022-11-24T01:44:24.855Z,35.90
2022-11-24T01:49:37.297Z,34.67
2022-11-24T01:54:44.821Z,34.16
2022-11-24T01:59:53.516Z,32.43
2022-11-24T02:05:05.553Z,31.65
2022-11-24T02:10:13.120Z,31.56
2022-11-24T02:15:17.909Z,30.00
2022-11-24T02:20:24.663Z,29.24
2022-11-24T02:25:36.961Z,27.52
2022-11-24T02:30:41.986Z,28.24
2022-11-24T02:35:45.329Z,44.06
2022-11-24T02:40:53.350Z,28.33
2022-11-24T02:46:00.494Z,31.39
2022-11-24T02:51:04.843Z,29.52
2022-11-24T02:56:08.455Z,28.84
2022-11-24T03:01:13.158Z,26.93
2022-11-24T03:06:16.511Z,71.17
2022-11-24T03:11:19.825Z,26.38
2022-11-24T03:16:24.659Z,27.01
2022-11-24T03:21:30.624Z,28.39
2022-11-24T03:26:36.779Z,28.48
2022-11-24T03:31:41.521Z,28.26
2022-11-24T03:36:44.979Z,26.59
2022-11-24T03:41:48.322Z,27.02
2022-11-24T03:46:53.132Z,26.62
2022-11-24T03:52:02.572Z,26.20
2022-11-24T03:57:11.205Z,26.79
2022-11-24T04:02:16.016Z,28.00
2022-11-24T04:07:21.715Z,40.09
2022-11-24T04:12:42.741Z,26.91
2022-11-24T04:17:48.599Z,26.43
2022-11-24T04:22:52.366Z,26.42
2022-11-24T04:27:57.191Z,26.81
2022-11-24T04:33:01.884Z,27.21
2022-11-24T04:38:05.218Z,26.34
2022-11-24T04:43:12.202Z,30.24
2022-11-24T04:48:18.998Z,34.37
2022-11-24T04:53:25.324Z,33.70
2022-11-24T04:58:28.712Z,32.50
2022-11-24T05:03:33.519Z,32.41
2022-11-24T05:08:41.539Z,35.50
2022-11-24T05:13:45.049Z,33.37
2022-11-24T05:18:52.255Z,34.29
2022-11-24T05:24:00.360Z,31.87
2022-11-24T05:29:08.410Z,37.93
2022-11-24T05:34:15.717Z,35.71
2022-11-24T05:39:19.176Z,35.02
2022-11-24T05:44:24.763Z,35.66
2022-11-24T05:49:29.451Z,29.07
2022-11-24T05:54:34.158Z,28.96
2022-11-24T05:59:40.234Z,36.69
2022-11-24T06:04:49.922Z,38.62
2022-11-24T06:09:53.329Z,36.85
2022-11-24T06:15:01.682Z,35.87
2022-11-24T06:20:10.477Z,34.24
2022-11-24T06:25:13.960Z,33.77
2022-11-24T06:30:17.358Z,33.51
2022-11-24T06:35:22.227Z,34.70
2022-11-24T06:40:25.666Z,38.24
2022-11-24T06:45:29.565Z,36.85
2022-11-24T06:50:34.361Z,36.63
2022-11-24T06:55:37.813Z,42.09
2022-11-24T07:00:43.522Z,40.26
2022-11-24T07:05:48.442Z,41.95
2022-11-24T07:10:52.596Z,45.07
2022-11-24T07:15:58.345Z,45.33
2022-11-24T07:21:06.649Z,44.82
2022-11-24T07:26:10.371Z,43.22
2022-11-24T07:31:14.983Z,49.87
2022-11-24T07:36:19.951Z,51.68
2022-11-24T07:41:25.650Z,47.20
2022-11-24T07:46:29.076Z,41.59
2022-11-24T07:51:33.736Z,45.31
2022-11-24T07:56:37.023Z,41.73
2022-11-24T08:01:40.959Z,45.75
2022-11-24T08:06:48.212Z,39.39
2022-11-24T08:11:51.532Z,40.44
2022-11-24T08:16:57.177Z,40.08
2022-11-24T08:22:04.412Z,40.95
2022-11-24T08:27:10.154Z,39.31
2022-11-24T08:32:21.797Z,39.95
2022-11-24T08:37:27.704Z,40.52
2022-11-24T08:42:33.332Z,37.77
2022-11-24T08:47:39.335Z,37.07
2022-11-24T08:52:43.910Z,35.60
2022-11-24T08:57:47.192Z,37.51
2022-11-24T09:02:56.381Z,36.85
2022-11-24T09:08:06.120Z,38.23
2022-11-24T09:13:09.354Z,35.30
2022-11-24T09:18:12.766Z,37.22
2022-11-24T09:23:17.417Z,39.47
2022-11-24T09:28:20.779Z,38.82
2022-11-24T09:33:26.484Z,41.52
2022-11-24T09:38:31.456Z,41.27
2022-11-24T09:43:42.891Z,45.00
2022-11-24T09:48:51.704Z,40.57
2022-11-24T09:54:01.997Z,41.89
2022-11-24T09:59:11.847Z,42.75
2022-11-24T10:04:16.905Z,41.83
2022-11-24T10:09:33.711Z,42.77
2022-11-24T10:14:51.151Z,44.75
2022-11-24T10:20:02.124Z,45.02
2022-11-24T10:25:20.225Z,44.63
2022-11-24T10:30:25.588Z,47.12
2022-11-24T10:35:30.903Z,48.20
2022-11-24T10:40:57.732Z,49.11
2022-11-24T10:46:12.010Z,45.48
2022-11-24T10:51:33.705Z,43.96
2022-11-24T10:56:42.775Z,45.94
2022-11-24T11:01:46.176Z,47.13
2022-11-24T11:06:50.061Z,45.92
2022-11-24T11:11:55.557Z,46.33
2022-11-24T11:16:59.839Z,45.47
2022-11-24T11:22:04.768Z,44.16
2022-11-24T11:27:18.220Z,45.98
2022-11-24T11:37:52.230Z,45.87
2022-11-24T11:43:05.839Z,48.48
2022-11-24T11:48:23.329Z,46.66
2022-11-24T11:53:37.179Z,46.84
2022-11-24T11:58:55.735Z,45.80
2022-11-24T12:04:11.235Z,43.55
2022-11-24T12:09:26.119Z,47.32
2022-11-24T12:14:42.950Z,40.68
2022-11-24T12:19:56.403Z,39.00
2022-11-24T12:25:12.507Z,40.83
2022-11-24T12:30:20.661Z,42.22
2022-11-24T12:35:34.389Z,45.82
2022-11-24T12:40:50.990Z,42.03
2022-11-24T12:46:00.473Z,41.59
2022-11-24T12:51:11.904Z,42.15
2022-11-24T12:56:22.935Z,51.00
2022-11-24T13:01:33.420Z,58.34
2022-11-24T13:06:49.375Z,44.02
2022-11-24T13:11:57.816Z,45.25
2022-11-24T13:17:42.004Z,58.15
2022-11-24T13:22:50.686Z,48.92
2022-11-24T13:27:59.597Z,38.42
2022-11-24T13:33:21.664Z,38.71
2022-11-24T13:38:41.356Z,43.87
2022-11-24T13:43:59.526Z,38.82
2022-11-24T13:49:14.723Z,39.71
2022-11-24T13:54:18.320Z,40.26
2022-11-24T13:59:33.260Z,40.99
2022-11-24T14:04:39.580Z,51.53
2022-11-24T14:09:45.135Z,52.48
2022-11-24T14:14:51.748Z,53.86
2022-11-24T14:19:57.602Z,55.37
2022-11-24T14:25:03.800Z,58.21
2022-11-24T14:30:19.458Z,56.55
2022-11-24T14:35:27.763Z,65.90
2022-11-24T14:40:41.905Z,57.05
2022-11-24T14:45:55.835Z,55.38
2022-11-24T14:51:12.613Z,65.04
2022-11-24T14:56:24.120Z,58.29
2022-11-24T15:01:32.743Z,62.89
2022-11-24T15:06:37.701Z,64.54
2022-11-24T15:11:43.499Z,59.44
2022-11-24T15:16:48.976Z,60.63
2022-11-24T15:21:56.220Z,67.57
2022-11-24T15:27:02.296Z,71.98
2022-11-24T15:32:14.298Z,66.46
2022-11-24T15:37:19.119Z,65.83
2022-11-24T15:42:22.437Z,59.87
2022-11-24T15:47:27.882Z,57.39
2022-11-24T15:52:32.621Z,55.27
2022-11-24T15:57:39.405Z,53.90
2022-11-24T16:02:42.757Z,51.60
2022-11-24T16:07:47.908Z,50.28
2022-11-24T16:12:53.424Z,48.83
2022-11-24T16:17:56.768Z,44.43
2022-11-24T16:23:04.376Z,44.35
2022-11-24T16:28:10.157Z,48.02
2022-11-24T16:33:13.459Z,52.72
2022-11-24T16:38:18.680Z,56.64
2022-11-24T16:43:25.415Z,62.73
2022-11-24T16:48:36.415Z,59.99
2022-11-24T16:53:43.984Z,57.65
2022-11-24T16:58:51.698Z,55.94
2022-11-24T17:03:55.164Z,58.24
2022-11-24T17:08:59.795Z,62.90
2022-11-24T17:14:03.171Z,63.37
2022-11-24T17:19:07.072Z,60.46
2022-11-24T17:24:15.616Z,60.34
2022-11-24T17:29:19.457Z,62.34
2022-11-24T17:34:22.732Z,61.73
2022-11-24T17:39:29.501Z,59.74
2022-11-24T17:44:33.714Z,54.16
2022-11-24T17:49:37.291Z,54.55
2022-11-24T17:54:46.712Z,57.22
2022-11-24T17:59:53.100Z,60.85
2022-11-24T18:05:01.398Z,67.19
2022-11-24T18:10:09.242Z,67.49
2022-11-24T18:15:12.771Z,58.28
2022-11-24T18:20:16.267Z,58.33
2022-11-24T18:25:21.136Z,59.19
2022-11-24T18:30:24.545Z,56.66
2022-11-24T18:35:27.920Z,59.44
2022-11-24T18:40:32.741Z,60.09
2022-11-24T18:45:39.144Z,58.52
2022-11-24T18:50:42.667Z,61.53
2022-11-24T18:55:54.406Z,58.50
2022-11-24T19:01:07.097Z,62.53
2022-11-24T19:06:14.311Z,60.26
2022-11-24T19:11:20.628Z,64.14
2022-11-24T19:16:24.862Z,65.47
2022-11-24T19:21:31.730Z,69.43
2022-11-24T19:26:38.679Z,69.59
2022-11-24T19:31:44.388Z,70.50
2022-11-24T19:36:47.771Z,70.24
2022-11-24T19:41:53.077Z,70.89
2022-11-24T19:46:56.630Z,67.72
2022-11-24T19:52:00.110Z,69.19
2022-11-24T19:57:07.332Z,75.76
2022-11-24T20:02:13.118Z,74.78
2022-11-24T20:07:20.492Z,74.13
2022-11-24T20:12:25.113Z,71.19
2022-11-24T20:17:30.069Z,69.41
2022-11-24T20:22:34.718Z,68.25
2022-11-24T20:27:39.451Z,74.52
2022-11-24T20:32:45.268Z,67.65
2022-11-24T20:37:50.755Z,69.36
2022-11-24T20:42:57.740Z,71.72
2022-11-24T20:48:01.102Z,70.92
2022-11-24T20:53:04.487Z,64.70
2022-11-24T20:58:09.334Z,62.17
2022-11-24T21:03:14.801Z,56.76
2022-11-24T21:08:19.435Z,55.20
2022-11-24T21:13:24.389Z,58.30
2022-11-24T21:18:30.170Z,57.46
2022-11-24T21:23:33.537Z,66.00
2022-11-24T21:28:38.481Z,68.17
2022-11-24T21:33:42.238Z,72.02
2022-11-24T21:38:50.620Z,70.85
2022-11-24T21:43:56.510Z,65.75
2022-11-24T21:48:59.860Z,74.71
2022-11-24T21:54:03.252Z,101.99
2022-11-24T21:59:08.286Z,80.43
2022-11-24T22:04:14.222Z,66.30
2022-11-24T22:09:20.226Z,66.25
2022-11-24T22:14:25.174Z,63.47
2022-11-24T22:19:28.395Z,60.79
2022-11-24T22:24:31.756Z,63.37
2022-11-24T22:29:36.407Z,60.84
2022-11-24T22:34:41.886Z,61.25
2022-11-24T22:39:45.130Z,59.66
2022-11-24T22:44:49.672Z,60.70
2022-11-24T22:49:55.297Z,59.81
2022-11-24T22:54:58.538Z,64.02
2022-11-24T23:00:03.203Z,62.50
2022-11-24T23:05:06.732Z,65.48
2022-11-24T23:10:10.275Z,65.91
2022-11-24T23:15:15.000Z,68.57
2022-11-24T23:20:18.418Z,63.19
2022-11-24T23:25:24.003Z,62.75
2022-11-24T23:30:28.634Z,66.19
2022-11-24T23:35:34.287Z,67.82
2022-11-24T23:40:39.866Z,67.15
2022-11-24T23:45:44.685Z,66.54
2022-11-24T23:50:50.214Z,71.55
2022-11-24T23:55:54.870Z,64.98
